createdAt,value
2019-01-15T00:01:23.428Z,2.00
2019-01-15T00:03:53.879Z,2.23
2019-01-15T00:06:24.377Z,2.30
2019-01-15T00:08:54.906Z,2.60
2019-01-15T00:11:25.362Z,2.90
2019-01-15T00:13:55.902Z,2.10
2019-01-15T00:16:26.668Z,2.20
2019-01-15T00:18:57.818Z,2.73
2019-01-15T00:21:28.358Z,2.07
2019-01-15T00:23:59.117Z,2.67
2019-01-15T00:26:29.660Z,2.00
2019-01-15T00:29:00.092Z,2.10
2019-01-15T00:31:30.758Z,2.17
2019-01-15T00:34:01.329Z,2.13
2019-01-15T00:36:31.825Z,2.37
2019-01-15T00:39:02.698Z,2.27
2019-01-15T00:41:33.139Z,2.60
2019-01-15T00:44:03.687Z,2.50
2019-01-15T00:46:34.688Z,2.23
2019-01-15T00:49:05.209Z,2.73
2019-01-15T00:51:35.777Z,2.33
2019-01-15T00:54:06.816Z,2.00
2019-01-15T00:56:37.408Z,2.20
2019-01-15T00:59:08.240Z,1.80
2019-01-15T01:01:38.909Z,1.83
2019-01-15T01:04:09.578Z,2.00
2019-01-15T01:06:40.218Z,1.83
2019-01-15T01:09:12.501Z,2.10
2019-01-15T01:11:43.117Z,2.63
2019-01-15T01:14:14.058Z,2.33
2019-01-15T01:16:44.633Z,1.70
2019-01-15T01:19:15.498Z,2.27
2019-01-15T01:21:46.169Z,2.37
2019-01-15T01:24:17.578Z,2.13
2019-01-15T01:26:48.308Z,2.43
2019-01-15T01:29:18.967Z,2.30
2019-01-15T01:31:49.717Z,2.10
2019-01-15T01:34:20.319Z,2.30
2019-01-15T01:36:50.947Z,2.47
2019-01-15T01:39:21.619Z,1.80
2019-01-15T01:41:52.358Z,2.13
2019-01-15T01:44:22.977Z,2.20
2019-01-15T01:46:53.567Z,2.07
2019-01-15T01:49:23.992Z,2.30
2019-01-15T01:51:54.552Z,2.60
2019-01-15T01:54:25.431Z,1.97
2019-01-15T01:56:56.017Z,2.43
2019-01-15T01:59:26.697Z,0.80
2019-01-15T02:01:57.298Z,2.37
2019-01-15T02:04:27.897Z,2.83
2019-01-15T02:06:58.553Z,2.70
2019-01-15T02:09:29.620Z,2.53
2019-01-15T02:12:00.207Z,2.30
2019-01-15T02:14:30.841Z,2.30
2019-01-15T02:17:01.807Z,2.00
2019-01-15T02:19:32.196Z,2.57
2019-01-15T02:22:02.778Z,2.47
2019-01-15T02:24:33.887Z,2.50
2019-01-15T02:27:07.059Z,2.00
2019-01-15T02:29:37.727Z,1.77
2019-01-15T02:32:08.230Z,3.23
2019-01-15T02:34:38.727Z,3.90
2019-01-15T02:37:09.423Z,1.90
2019-01-15T02:39:40.007Z,1.70
2019-01-15T02:42:10.510Z,1.63
2019-01-15T02:44:41.069Z,2.40
2019-01-15T02:47:11.572Z,2.60
2019-01-15T02:49:42.013Z,2.00
2019-01-15T02:52:12.914Z,3.20
2019-01-15T02:54:43.418Z,1.77
2019-01-15T02:57:14.057Z,1.97
2019-01-15T02:59:44.734Z,2.63
2019-01-15T03:02:15.219Z,2.10
2019-01-15T03:04:45.798Z,1.87
2019-01-15T03:07:16.417Z,2.00
2019-01-15T03:09:46.988Z,2.03
2019-01-15T03:12:17.406Z,1.93
2019-01-15T03:14:47.934Z,2.40
2019-01-15T03:17:18.449Z,1.87
2019-01-15T03:19:49.278Z,2.20
2019-01-15T03:22:20.177Z,2.00
2019-01-15T03:24:50.761Z,2.27
2019-01-15T03:27:21.332Z,1.90
2019-01-15T03:29:51.896Z,2.90
2019-01-15T03:32:22.549Z,2.70
2019-01-15T03:34:52.987Z,2.53
2019-01-15T03:37:23.718Z,1.90
2019-01-15T03:39:54.258Z,3.00
2019-01-15T03:42:24.759Z,3.77
2019-01-15T03:44:56.128Z,4.10
2019-01-15T03:47:26.598Z,2.77
2019-01-15T03:49:57.074Z,2.73
2019-01-15T03:52:27.703Z,3.70
2019-01-15T03:54:58.132Z,4.77
2019-01-15T03:57:28.622Z,4.90
2019-01-15T03:59:59.179Z,2.23
2019-01-15T04:02:29.767Z,3.60
2019-01-15T04:05:00.763Z,2.87
2019-01-15T04:07:31.516Z,3.50
2019-01-15T04:10:02.242Z,3.33
2019-01-15T04:12:32.683Z,4.57
2019-01-15T04:15:03.250Z,3.27
2019-01-15T04:17:33.788Z,4.10
2019-01-15T04:20:05.715Z,3.83
2019-01-15T04:22:36.294Z,3.50
2019-01-15T04:25:08.125Z,3.20
2019-01-15T04:27:38.637Z,6.27
2019-01-15T04:30:13.788Z,2.30
2019-01-15T04:32:44.282Z,4.73
2019-01-15T04:35:14.884Z,3.70
2019-01-15T04:37:45.434Z,7.23
2019-01-15T04:40:20.403Z,6.90
2019-01-15T04:42:51.127Z,4.13
2019-01-15T04:45:24.042Z,2.57
2019-01-15T04:47:54.597Z,3.83
2019-01-15T04:50:25.148Z,3.40
2019-01-15T04:53:01.095Z,3.43
2019-01-15T04:55:31.878Z,3.67
2019-01-15T04:58:02.529Z,3.80
2019-01-15T05:00:33.201Z,3.87
2019-01-15T05:03:07.403Z,3.80
2019-01-15T05:05:37.998Z,3.63
2019-01-15T05:08:09.040Z,3.80
2019-01-15T05:10:41.551Z,4.80
2019-01-15T05:13:11.948Z,5.00
2019-01-15T05:15:42.742Z,3.73
2019-01-15T05:18:15.402Z,3.43
2019-01-15T05:20:45.810Z,4.77
2019-01-15T05:23:18.334Z,3.40
2019-01-15T05:25:48.909Z,3.20
2019-01-15T05:28:19.593Z,3.90
2019-01-15T05:30:50.433Z,3.83
2019-01-15T05:33:21.067Z,4.23
2019-01-15T05:35:51.599Z,4.50
2019-01-15T05:38:22.168Z,6.23
2019-01-15T05:40:55.452Z,4.13
2019-01-15T05:43:26.069Z,3.33
2019-01-15T05:45:56.616Z,4.43
2019-01-15T05:48:33.779Z,4.77
2019-01-15T05:51:15.515Z,4.20
2019-01-15T05:53:45.957Z,3.70
2019-01-15T05:56:16.443Z,4.70
2019-01-15T05:58:47.119Z,4.57
2019-01-15T06:01:18.657Z,3.43
2019-01-15T06:03:49.293Z,5.27
2019-01-15T06:06:19.810Z,4.50
2019-01-15T06:08:50.413Z,3.43
2019-01-15T06:11:21.010Z,2.77
2019-01-15T06:13:51.727Z,5.47
2019-01-15T06:16:22.349Z,6.07
2019-01-15T06:18:52.847Z,4.40
2019-01-15T06:21:23.418Z,2.90
2019-01-15T06:23:54.512Z,3.40
2019-01-15T06:26:24.938Z,2.97
2019-01-15T06:28:55.865Z,2.87
2019-01-15T06:31:26.466Z,3.30
2019-01-15T06:33:57.053Z,2.80
2019-01-15T06:36:27.563Z,3.10
2019-01-15T06:38:58.097Z,2.53
2019-01-15T06:41:28.812Z,3.57
2019-01-15T06:43:59.207Z,2.23
2019-01-15T06:46:30.381Z,2.70
2019-01-15T06:49:00.967Z,2.63
2019-01-15T06:51:31.658Z,3.73
2019-01-15T06:54:02.334Z,2.80
2019-01-15T06:56:32.845Z,2.40
2019-01-15T06:59:03.340Z,2.77
2019-01-15T07:01:33.840Z,3.07
2019-01-15T07:04:04.599Z,2.77
2019-01-15T07:06:35.018Z,6.47
2019-01-15T07:09:09.437Z,4.07
2019-01-15T07:11:40.003Z,2.80
2019-01-15T07:14:10.687Z,3.27
2019-01-15T07:16:41.787Z,4.00
2019-01-15T07:19:12.489Z,3.07
2019-01-15T07:21:43.018Z,3.57
2019-01-15T07:24:14.128Z,3.60
2019-01-15T07:26:44.718Z,3.20
2019-01-15T07:29:15.562Z,3.10
2019-01-15T07:31:46.030Z,3.47
2019-01-15T07:34:16.653Z,3.27
2019-01-15T07:36:47.220Z,2.43
2019-01-15T07:39:17.850Z,3.00
2019-01-15T07:41:48.362Z,2.47
2019-01-15T07:44:19.052Z,1.60
2019-01-15T07:46:49.527Z,2.27
2019-01-15T07:49:20.084Z,2.60
2019-01-15T07:51:50.488Z,2.80
2019-01-15T07:54:21.072Z,3.30
2019-01-15T07:56:51.602Z,2.50
2019-01-15T07:59:22.201Z,2.97
2019-01-15T08:01:53.108Z,3.40
2019-01-15T08:04:23.578Z,2.90
2019-01-15T08:06:54.150Z,3.33
2019-01-15T08:09:25.123Z,3.17
2019-01-15T08:11:55.703Z,3.13
2019-01-15T08:14:26.346Z,3.20
2019-01-15T08:16:56.993Z,3.40
2019-01-15T08:19:27.812Z,3.10
2019-01-15T08:21:58.325Z,2.40
2019-01-15T08:24:29.199Z,2.30
2019-01-15T08:26:59.757Z,2.23
2019-01-15T08:29:30.252Z,2.20
2019-01-15T08:32:00.788Z,2.60
2019-01-15T08:34:31.192Z,2.20
2019-01-15T08:37:02.013Z,2.20
2019-01-15T08:39:32.487Z,3.10
2019-01-15T08:42:03.136Z,2.87
2019-01-15T08:44:33.583Z,2.20
2019-01-15T08:47:04.171Z,2.53
2019-01-15T08:49:34.543Z,2.80
2019-01-15T08:52:04.949Z,2.70
2019-01-15T08:54:35.776Z,2.67
2019-01-15T08:57:06.555Z,2.80
2019-01-15T08:59:37.100Z,3.93
2019-01-15T09:02:07.977Z,5.07
2019-01-15T09:04:38.403Z,4.90
2019-01-15T09:07:08.970Z,5.37
2019-01-15T09:09:39.466Z,5.57
2019-01-15T09:12:10.229Z,7.20
2019-01-15T09:14:40.793Z,6.57
2019-01-15T09:17:11.399Z,6.40
2019-01-15T09:19:42.026Z,5.03
2019-01-15T09:22:12.494Z,4.93
2019-01-15T09:24:42.868Z,5.73
2019-01-15T09:27:13.388Z,5.13
2019-01-15T09:29:43.887Z,5.30
2019-01-15T09:32:14.308Z,6.60
2019-01-15T09:34:44.914Z,4.23
2019-01-15T09:37:15.361Z,5.03
2019-01-15T09:39:46.027Z,5.00
2019-01-15T09:42:17.144Z,5.47
2019-01-15T09:44:48.333Z,5.60
2019-01-15T09:47:18.908Z,5.10
2019-01-15T09:49:49.416Z,5.97
2019-01-15T09:52:20.631Z,6.43
2019-01-15T09:54:51.541Z,3.83
2019-01-15T09:57:22.108Z,3.77
2019-01-15T09:59:52.551Z,3.30
2019-01-15T10:02:24.057Z,4.30
2019-01-15T10:04:54.738Z,5.07
2019-01-15T10:07:25.217Z,4.07
2019-01-15T10:09:55.795Z,4.97
2019-01-15T10:12:26.262Z,4.83
2019-01-15T10:14:56.664Z,3.67
2019-01-15T10:17:27.368Z,2.83
2019-01-15T10:19:57.848Z,4.30
2019-01-15T10:22:28.848Z,3.90
2019-01-15T10:24:59.839Z,3.43
2019-01-15T10:27:30.609Z,3.73
2019-01-15T10:30:03.453Z,3.37
2019-01-15T10:33:01.817Z,4.43
2019-01-15T10:35:59.259Z,3.73
2019-01-15T10:38:32.706Z,3.37
2019-01-15T10:41:04.117Z,3.60
2019-01-15T10:43:36.036Z,3.43
2019-01-15T10:46:07.637Z,3.70
2019-01-15T10:48:38.128Z,2.43
2019-01-15T10:51:08.608Z,3.30
2019-01-15T10:53:39.222Z,3.40
2019-01-15T10:56:09.658Z,4.10
2019-01-15T10:58:40.224Z,3.23
2019-01-15T11:01:11.161Z,2.77
2019-01-15T11:03:41.544Z,2.50
2019-01-15T11:06:12.169Z,2.80
2019-01-15T11:08:42.752Z,3.03
2019-01-15T11:11:13.375Z,3.27
2019-01-15T11:13:43.777Z,2.97
2019-01-15T11:16:14.590Z,3.30
2019-01-15T11:18:45.156Z,3.57
2019-01-15T11:21:15.695Z,3.53
2019-01-15T11:23:46.284Z,2.80
2019-01-15T11:26:16.968Z,3.33
2019-01-15T11:28:47.548Z,2.83
2019-01-15T11:31:18.080Z,2.20
2019-01-15T11:33:48.582Z,3.00
2019-01-15T11:36:18.909Z,2.80
2019-01-15T11:38:49.487Z,2.87
2019-01-15T11:41:19.951Z,2.67
2019-01-15T11:43:50.356Z,3.63
2019-01-15T11:46:20.857Z,3.00
2019-01-15T11:48:51.229Z,2.93
2019-01-15T11:51:21.817Z,2.93
2019-01-15T11:53:52.347Z,3.50
2019-01-15T11:56:22.859Z,2.50
2019-01-15T11:58:53.987Z,2.10
2019-01-15T12:01:38.407Z,2.73
2019-01-15T12:04:27.889Z,2.30
2019-01-15T12:07:17.461Z,2.40
2019-01-15T12:09:57.163Z,2.50
2019-01-15T12:12:46.833Z,1.90
2019-01-15T12:15:36.193Z,2.00
2019-01-15T12:18:25.687Z,2.30
2019-01-15T12:21:15.079Z,2.13
2019-01-15T12:24:05.309Z,1.60
2019-01-15T12:26:55.329Z,2.30
2019-01-15T12:29:44.663Z,2.10
2019-01-15T12:32:34.299Z,2.70
2019-01-15T12:35:24.583Z,2.13
2019-01-15T12:38:13.278Z,2.70
2019-01-15T12:41:02.525Z,2.47
2019-01-15T12:43:43.566Z,1.87
2019-01-15T12:46:32.969Z,3.10
2019-01-15T12:49:22.216Z,1.83
2019-01-15T12:52:11.601Z,3.03
2019-01-15T12:55:00.983Z,2.70
2019-01-15T12:57:46.846Z,2.47
2019-01-15T13:00:32.373Z,2.57
2019-01-15T13:03:15.229Z,2.10
2019-01-15T13:06:04.643Z,2.20
2019-01-15T13:08:54.016Z,2.80
2019-01-15T13:11:43.383Z,2.87
2019-01-15T13:14:32.776Z,3.30
2019-01-15T13:17:22.113Z,3.17
2019-01-15T13:20:11.522Z,3.13
2019-01-15T13:23:00.904Z,4.30
2019-01-15T13:25:52.035Z,2.83
2019-01-15T13:28:31.634Z,2.30
2019-01-15T13:31:21.001Z,3.53
2019-01-15T13:34:00.924Z,3.73
2019-01-15T13:36:50.520Z,3.60
2019-01-15T13:39:39.852Z,3.83
2019-01-15T13:42:29.273Z,4.13
2019-01-15T13:45:18.556Z,4.70
2019-01-15T13:48:05.672Z,5.10
2019-01-15T13:50:45.802Z,5.70
2019-01-15T13:53:35.396Z,5.43
2019-01-15T13:56:18.843Z,5.07
2019-01-15T13:59:08.238Z,6.03
2019-01-15T14:01:57.553Z,5.93
2019-01-15T14:04:43.196Z,5.70
2019-01-15T14:07:32.677Z,7.27
2019-01-15T14:10:17.314Z,4.60
2019-01-15T14:13:06.678Z,7.33
2019-01-15T14:15:56.028Z,7.40
2019-01-15T14:18:45.288Z,6.67
2019-01-15T14:21:34.728Z,7.57
2019-01-15T14:24:24.115Z,8.37
2019-01-15T14:27:04.639Z,6.93
2019-01-15T14:29:53.913Z,8.23
2019-01-15T14:32:44.003Z,7.37
2019-01-15T14:35:31.039Z,6.37
2019-01-15T14:38:20.447Z,7.50
2019-01-15T14:41:09.879Z,5.17
2019-01-15T14:43:59.278Z,5.73
2019-01-15T14:46:48.493Z,7.07
2019-01-15T14:49:33.285Z,7.07
2019-01-15T14:52:18.628Z,7.33
2019-01-15T14:55:03.764Z,7.13
2019-01-15T14:57:53.421Z,7.03
2019-01-15T15:00:43.008Z,6.67
2019-01-15T15:03:26.438Z,6.67
2019-01-15T15:06:17.088Z,7.47
2019-01-15T15:09:06.769Z,8.23
2019-01-15T15:11:53.902Z,6.83
2019-01-15T15:14:47.775Z,7.27
2019-01-15T15:17:37.299Z,8.33
2019-01-15T15:20:23.769Z,8.37
2019-01-15T15:23:11.906Z,6.73
2019-01-15T15:25:50.290Z,8.70
2019-01-15T15:28:40.193Z,8.37
2019-01-15T15:31:29.513Z,8.47
2019-01-15T15:34:19.268Z,7.90
2019-01-15T15:37:10.365Z,8.50
2019-01-15T15:39:59.815Z,8.37
2019-01-15T15:42:54.162Z,6.97
2019-01-15T15:45:43.643Z,6.70
2019-01-15T15:48:33.041Z,6.20
2019-01-15T15:51:17.320Z,5.83
2019-01-15T15:54:09.763Z,7.50
2019-01-15T15:56:59.401Z,5.73
2019-01-15T15:59:43.019Z,6.07
2019-01-15T16:02:32.694Z,8.03
2019-01-15T16:05:19.999Z,6.60
2019-01-15T16:08:10.616Z,6.53
2019-01-15T16:11:01.649Z,7.73
2019-01-15T16:13:52.492Z,7.93
2019-01-15T16:16:43.168Z,8.40
2019-01-15T16:19:34.972Z,5.70
2019-01-15T16:22:15.628Z,7.00
2019-01-15T16:25:08.709Z,7.63
2019-01-15T16:27:58.024Z,8.50
2019-01-15T16:30:59.416Z,8.37
2019-01-15T16:33:48.703Z,8.90
2019-01-15T16:36:44.850Z,6.43
2019-01-15T16:39:36.577Z,6.23
2019-01-15T16:42:30.419Z,10.67
2019-01-15T16:45:23.772Z,9.17
2019-01-15T16:48:14.259Z,9.80
2019-01-15T16:51:04.808Z,10.57
2019-01-15T16:53:54.126Z,11.33
2019-01-15T16:56:50.503Z,11.17
2019-01-15T16:59:35.898Z,10.93
2019-01-15T17:02:25.543Z,11.13
2019-01-15T17:05:17.614Z,11.33
2019-01-15T17:08:07.997Z,10.10
2019-01-15T17:10:59.859Z,12.17
2019-01-15T17:13:51.236Z,13.47
2019-01-15T17:16:42.326Z,12.23
2019-01-15T17:19:33.061Z,13.47
2019-01-15T17:22:25.607Z,12.00
2019-01-15T17:25:17.550Z,13.00
2019-01-15T17:28:00.876Z,12.20
2019-01-15T17:30:51.310Z,11.90
2019-01-15T17:33:40.265Z,10.43
2019-01-15T17:36:33.133Z,9.00
2019-01-15T17:39:22.763Z,10.87
2019-01-15T17:42:17.640Z,11.67
2019-01-15T17:45:07.156Z,13.40
2019-01-15T17:47:55.447Z,16.20
2019-01-15T17:50:45.041Z,13.97
2019-01-15T17:53:34.479Z,14.73
2019-01-15T17:56:19.771Z,17.50
2019-01-15T17:59:00.436Z,18.60
2019-01-15T18:01:49.908Z,18.00
2019-01-15T18:04:42.313Z,14.37
2019-01-15T18:07:27.064Z,10.83
2019-01-15T18:10:16.324Z,11.33
2019-01-15T18:13:08.118Z,9.53
2019-01-15T18:15:53.492Z,7.83
2019-01-15T18:18:50.358Z,9.63
2019-01-15T18:21:41.298Z,10.40
2019-01-15T18:24:27.354Z,10.10
2019-01-15T18:27:09.071Z,9.90
2019-01-15T18:30:00.856Z,9.43
2019-01-15T18:32:58.137Z,8.73
2019-01-15T18:35:52.004Z,11.17
2019-01-15T18:38:35.515Z,11.13
2019-01-15T18:41:27.500Z,12.10
2019-01-15T18:44:18.854Z,10.20
2019-01-15T18:47:12.443Z,14.43
2019-01-15T18:50:05.521Z,12.07
2019-01-15T18:52:58.768Z,12.83
2019-01-15T18:55:49.866Z,13.13
2019-01-15T18:58:43.353Z,11.53
2019-01-15T19:01:37.718Z,12.23
2019-01-15T19:04:25.313Z,12.90
2019-01-15T19:07:17.818Z,12.10
2019-01-15T19:10:10.790Z,12.07
2019-01-15T19:13:01.994Z,12.33
2019-01-15T19:16:00.266Z,12.90
2019-01-15T19:18:51.428Z,11.33
2019-01-15T19:21:40.149Z,13.60
2019-01-15T19:24:47.424Z,12.50
2019-01-15T19:27:40.378Z,12.37
2019-01-15T19:30:34.587Z,12.07
2019-01-15T19:33:26.423Z,13.43
2019-01-15T19:36:20.088Z,12.77
2019-01-15T19:39:13.514Z,12.30
2019-01-15T19:42:04.427Z,14.53
2019-01-15T19:45:03.306Z,17.03
2019-01-15T19:47:54.795Z,17.70
2019-01-15T19:50:36.298Z,15.23
2019-01-15T19:53:25.840Z,15.90
2019-01-15T19:56:08.884Z,15.83
2019-01-15T19:58:59.212Z,18.53
2019-01-15T20:01:46.963Z,13.47
2019-01-15T20:04:41.871Z,16.50
2019-01-15T20:07:25.492Z,15.87
2019-01-15T20:10:20.249Z,13.93
2019-01-15T20:13:01.518Z,18.57
2019-01-15T20:15:59.202Z,18.23
2019-01-15T20:18:50.399Z,18.30
2019-01-15T20:21:58.941Z,15.43
2019-01-15T20:24:48.489Z,18.50
2019-01-15T20:27:39.380Z,18.13
2019-01-15T20:30:26.692Z,12.33
2019-01-15T20:33:23.327Z,19.93
2019-01-15T20:36:12.157Z,13.77
2019-01-15T20:38:54.350Z,15.67
2019-01-15T20:41:36.167Z,13.37
2019-01-15T20:44:29.502Z,14.50
2019-01-15T20:47:25.804Z,12.20
2019-01-15T20:50:19.132Z,14.23
2019-01-15T20:53:09.891Z,13.07
2019-01-15T20:56:00.578Z,15.23
2019-01-15T20:58:56.567Z,15.30
2019-01-15T21:01:46.473Z,13.00
2019-01-15T21:04:40.278Z,12.37
2019-01-15T21:07:32.700Z,12.83
2019-01-15T21:10:15.812Z,12.90
2019-01-15T21:13:10.380Z,14.20
2019-01-15T21:15:59.874Z,13.70
2019-01-15T21:18:37.678Z,19.07
2019-01-15T21:21:27.623Z,13.50
2019-01-15T21:24:14.766Z,14.83
2019-01-15T21:27:07.582Z,14.23
2019-01-15T21:29:50.942Z,9.07
2019-01-15T21:32:41.500Z,7.87
2019-01-15T21:35:34.282Z,8.70
2019-01-15T21:38:19.216Z,10.77
2019-01-15T21:41:08.963Z,9.10
2019-01-15T21:43:59.509Z,11.77
2019-01-15T21:46:38.924Z,10.97
2019-01-15T21:49:28.693Z,8.10
2019-01-15T21:52:13.584Z,8.03
2019-01-15T21:55:05.767Z,10.13
2019-01-15T21:57:55.303Z,10.23
2019-01-15T22:00:44.925Z,12.13
2019-01-15T22:03:35.978Z,12.00
2019-01-15T22:06:25.773Z,10.07
2019-01-15T22:09:15.162Z,10.47
2019-01-15T22:12:04.483Z,11.10
2019-01-15T22:14:50.478Z,11.47
2019-01-15T22:17:39.742Z,10.90
2019-01-15T22:20:29.818Z,9.40
2019-01-15T22:23:19.238Z,8.73
2019-01-15T22:26:08.856Z,10.93
2019-01-15T22:28:57.489Z,10.47
2019-01-15T22:31:36.927Z,11.00
2019-01-15T22:34:26.347Z,9.23
2019-01-15T22:37:09.161Z,9.37
2019-01-15T22:39:58.173Z,11.03
2019-01-15T22:42:47.548Z,8.80
2019-01-15T22:45:34.223Z,9.67
2019-01-15T22:48:23.617Z,10.47
2019-01-15T22:51:13.023Z,11.13
2019-01-15T22:54:02.437Z,9.63
2019-01-15T22:56:51.833Z,8.50
2019-01-15T22:59:37.340Z,7.90
2019-01-15T23:02:26.727Z,9.80
2019-01-15T23:05:16.138Z,10.30
2019-01-15T23:08:05.609Z,10.57
2019-01-15T23:10:54.953Z,9.93
2019-01-15T23:13:36.038Z,9.23
2019-01-15T23:16:19.243Z,9.83
2019-01-15T23:19:00.426Z,8.33
2019-01-15T23:21:45.982Z,7.70
2019-01-15T23:24:35.344Z,7.30
2019-01-15T23:27:25.096Z,5.90
2019-01-15T23:30:05.743Z,6.83
2019-01-15T23:32:55.167Z,8.30
2019-01-15T23:35:44.550Z,8.03
2019-01-15T23:38:34.027Z,7.90
2019-01-15T23:41:23.642Z,7.30
2019-01-15T23:44:12.947Z,7.23
2019-01-15T23:47:02.443Z,5.87
2019-01-15T23:49:51.763Z,6.40
2019-01-15T23:52:33.287Z,7.47
2019-01-15T23:55:17.178Z,6.47
2019-01-15T23:57:59.532Z,8.07
